Terminal Aerodrome Forecast
Issued by NWS Boston, MA

Home | Current Version | Previous Version | Text Only | Print | Product List | Glossary On
Versions: 1 2 3 4 5 6 7 8 9 10 11 12 13 14 15 16 17 18 19 20 21 22 23 24 25 26 27 28 29 30 31 32 33 34 35 36 37 38 39 40 41 42 43 44
000
FTUS41 KBOX 151725
TAFBOS
TAF
KBOS 151725Z 1518/1624 20005KT P6SM OVC150
     FM152200 19004KT 6SM -SN BKN040 OVC070
     FM160400 27006KT P6SM BKN050
     FM161000 27008G18KT P6SM FEW150
     FM161800 28012G22KT P6SM SCT070=

USA.gov is the U.S. government's official web portal to all federal, state and local government web resources and services.